createdAt,value
2019-05-26T00:07:31.026Z,99.9
2019-05-26T00:17:34.657Z,99.9
2019-05-26T00:27:38.070Z,99.9
2019-05-26T00:37:50.938Z,99.9
2019-05-26T00:47:54.471Z,99.9
2019-05-26T00:57:57.987Z,99.9
2019-05-26T01:08:06.985Z,99.9
2019-05-26T01:18:10.574Z,99.9
2019-05-26T01:28:14.045Z,99.9
2019-05-26T01:38:24.691Z,99.9
2019-05-26T01:48:28.214Z,99.9
2019-05-26T01:58:31.670Z,99.9
2019-05-26T02:08:39.997Z,99.9
2019-05-26T02:18:43.506Z,99.9
2019-05-26T02:28:46.972Z,99.9
2019-05-26T02:39:03.563Z,99.9
2019-05-26T02:49:07.229Z,99.9
2019-05-26T02:59:10.675Z,99.9
2019-05-26T03:09:23.914Z,99.9
2019-05-26T03:19:27.780Z,99.9
2019-05-26T03:29:31.258Z,99.9
2019-05-26T03:39:46.259Z,99.9
2019-05-26T03:49:50.233Z,99.9
2019-05-26T03:59:53.683Z,99.9
2019-05-26T04:10:06.357Z,99.9
2019-05-26T04:20:10.177Z,99.9
2019-05-26T04:30:13.719Z,99.9
2019-05-26T04:40:28.116Z,99.9
2019-05-26T04:50:31.826Z,99.9
2019-05-26T05:00:35.321Z,99.9
2019-05-26T05:10:43.043Z,99.9
2019-05-26T05:20:46.598Z,99.9
2019-05-26T05:30:50.060Z,99.9
2019-05-26T05:41:00.492Z,99.9
2019-05-26T05:51:04.036Z,94.9
2019-05-26T06:01:07.466Z,99.9
2019-05-26T06:11:17.418Z,99.9
2019-05-26T06:21:20.933Z,99.9
2019-05-26T06:31:24.404Z,99.9
2019-05-26T06:41:34.264Z,99.9
2019-05-26T06:51:37.778Z,98.4
2019-05-26T07:01:41.247Z,98.7
2019-05-26T07:12:00.076Z,97.6
2019-05-26T07:22:04.225Z,97.2
2019-05-26T07:32:07.666Z,89.7
2019-05-26T07:42:11.570Z,93.4
2019-05-26T07:52:15.025Z,86.9
2019-05-26T08:02:18.448Z,93.3
2019-05-26T08:12:30.310Z,88.8
2019-05-26T08:22:34.278Z,90.1
2019-05-26T08:32:37.698Z,72.2
2019-05-26T08:42:44.968Z,68.2
2019-05-26T08:52:48.455Z,65.3
2019-05-26T09:02:51.929Z,68.5
2019-05-26T09:13:01.778Z,64.1
2019-05-26T09:23:05.343Z,62.8
2019-05-26T09:33:08.830Z,64
2019-05-26T09:43:16.906Z,60.8
2019-05-26T09:53:20.392Z,58.9
2019-05-26T10:03:23.845Z,58.5
2019-05-26T10:13:32.394Z,58.3
2019-05-26T10:23:35.943Z,54.1
2019-05-26T10:33:39.422Z,46.9
2019-05-26T10:43:48.037Z,49.5
2019-05-26T10:53:51.539Z,45.5
2019-05-26T11:03:54.991Z,45
2019-05-26T11:14:03.593Z,40.7
2019-05-26T11:24:07.348Z,43.5
2019-05-26T11:34:10.778Z,39.5
2019-05-26T11:44:18.609Z,43.3
2019-05-26T11:54:22.147Z,42.1
2019-05-26T12:04:25.827Z,43.3
2019-05-26T12:14:35.665Z,41.8
2019-05-26T12:24:39.240Z,42.4
2019-05-26T12:34:42.668Z,42.1
2019-05-26T12:54:54.408Z,52
2019-05-26T13:04:57.865Z,48.4
2019-05-26T13:15:06.528Z,46.1
2019-05-26T13:25:10.133Z,48
2019-05-26T13:35:13.593Z,51.1
2019-05-26T13:45:23.523Z,46.5
2019-05-26T13:55:27.190Z,49.1
2019-05-26T14:05:30.610Z,49.6
2019-05-26T14:15:39.533Z,50.4
2019-05-26T14:25:43.054Z,49.9
2019-05-26T14:35:46.495Z,51.1
2019-05-26T14:45:54.031Z,54.2
2019-05-26T14:55:57.544Z,54
2019-05-26T15:06:06.508Z,53.2
2019-05-26T15:16:10.794Z,52.9
2019-05-26T15:26:14.306Z,58.4
2019-05-26T15:36:17.732Z,53.8
2019-05-26T15:46:25.949Z,53.5
2019-05-26T15:56:29.444Z,54.8
2019-05-26T16:06:32.915Z,56.3
2019-05-26T16:16:42.116Z,54.8
2019-05-26T16:26:45.682Z,56.2
2019-05-26T16:36:49.142Z,55.4
2019-05-26T16:46:57.192Z,59
2019-05-26T16:57:00.697Z,59.5
2019-05-26T17:07:04.165Z,61.4
2019-05-26T17:17:15.495Z,59.5
2019-05-26T17:27:19.035Z,58.9
2019-05-26T17:37:22.508Z,62.3
2019-05-26T17:47:31.085Z,66.5
2019-05-26T17:57:37.394Z,67.5
2019-05-26T18:07:40.838Z,64.1
2019-05-26T18:17:47.985Z,69.9
2019-05-26T18:27:51.517Z,71
2019-05-26T18:37:54.942Z,78.7
2019-05-26T18:48:03.865Z,88.7
2019-05-26T18:58:07.571Z,88.7
2019-05-26T19:08:10.987Z,92.6
2019-05-26T19:18:20.846Z,91.1
2019-05-26T19:28:24.384Z,93.9
2019-05-26T19:38:27.837Z,95.3
2019-05-26T19:48:37.365Z,99.6
2019-05-26T19:58:40.926Z,99.9
2019-05-26T20:08:44.402Z,99.9
2019-05-26T20:18:47.855Z,99.9
2019-05-26T20:28:51.442Z,99.9
2019-05-26T20:38:55.168Z,99.9
2019-05-26T20:48:58.659Z,99.9
2019-05-26T20:59:02.103Z,99.9
2019-05-26T21:09:05.590Z,99.9
2019-05-26T21:19:09.050Z,99.9
2019-05-26T21:29:12.661Z,99.9
2019-05-26T21:39:16.846Z,99.9
2019-05-26T21:49:20.271Z,99.9
2019-05-26T21:59:23.710Z,99.9
2019-05-26T22:09:27.140Z,99.9
2019-05-26T22:19:30.602Z,99.9
2019-05-26T22:29:34.028Z,99.9
2019-05-26T22:39:37.494Z,99.9
2019-05-26T22:49:40.970Z,99.9
2019-05-26T22:59:44.448Z,99.9
2019-05-26T23:09:47.896Z,99.9
2019-05-26T23:19:51.380Z,99.9
2019-05-26T23:29:54.823Z,99.9
2019-05-26T23:39:58.283Z,99.9
2019-05-26T23:50:01.771Z,99.9
